sensor_id;sensor_type;location;lat;lon;timestamp;temperature;humidity
36424;DHT22;22458;45.328;9.514;2023-01-23T00:01:11;5.30;86.80
36424;DHT22;22458;45.328;9.514;2023-01-23T00:03:37;5.30;86.80
36424;DHT22;22458;45.328;9.514;2023-01-23T00:06:09;5.20;86.80
36424;DHT22;22458;45.328;9.514;2023-01-23T00:08:36;5.30;87.00
36424;DHT22;22458;45.328;9.514;2023-01-23T00:11:11;5.30;87.00
36424;DHT22;22458;45.328;9.514;2023-01-23T00:13:37;5.30;87.30
36424;DHT22;22458;45.328;9.514;2023-01-23T00:16:12;5.30;87.50
36424;DHT22;22458;45.328;9.514;2023-01-23T00:18:38;5.30;87.70
36424;DHT22;22458;45.328;9.514;2023-01-23T00:21:12;5.20;87.70
36424;DHT22;22458;45.328;9.514;2023-01-23T00:23:41;5.20;88.00
36424;DHT22;22458;45.328;9.514;2023-01-23T00:26:11;5.10;88.40
36424;DHT22;22458;45.328;9.514;2023-01-23T00:28:39;5.00;88.70
36424;DHT22;22458;45.328;9.514;2023-01-23T00:31:10;4.90;89.00
36424;DHT22;22458;45.328;9.514;2023-01-23T00:33:38;4.90;89.30
36424;DHT22;22458;45.328;9.514;2023-01-23T00:36:05;4.80;89.40
36424;DHT22;22458;45.328;9.514;2023-01-23T00:38:31;4.90;89.70
36424;DHT22;22458;45.328;9.514;2023-01-23T00:40:56;4.90;89.70
36424;DHT22;22458;45.328;9.514;2023-01-23T00:43:23;4.80;89.80
36424;DHT22;22458;45.328;9.514;2023-01-23T00:45:49;4.80;89.80
36424;DHT22;22458;45.328;9.514;2023-01-23T00:48:15;4.90;90.00
36424;DHT22;22458;45.328;9.514;2023-01-23T00:50:41;4.90;90.00
36424;DHT22;22458;45.328;9.514;2023-01-23T00:53:07;5.00;90.00
36424;DHT22;22458;45.328;9.514;2023-01-23T00:55:32;5.00;89.80
36424;DHT22;22458;45.328;9.514;2023-01-23T00:57:59;5.00;89.90
36424;DHT22;22458;45.328;9.514;2023-01-23T01:00:25;5.00;89.90
36424;DHT22;22458;45.328;9.514;2023-01-23T01:02:51;5.10;89.90
36424;DHT22;22458;45.328;9.514;2023-01-23T01:05:17;5.10;89.70
36424;DHT22;22458;45.328;9.514;2023-01-23T01:07:46;5.20;89.70
36424;DHT22;22458;45.328;9.514;2023-01-23T01:10:13;5.20;89.60
36424;DHT22;22458;45.328;9.514;2023-01-23T01:12:39;5.20;89.50
36424;DHT22;22458;45.328;9.514;2023-01-23T01:15:05;5.30;89.50
36424;DHT22;22458;45.328;9.514;2023-01-23T01:17:31;5.30;89.60
36424;DHT22;22458;45.328;9.514;2023-01-23T01:19:57;5.30;89.50
36424;DHT22;22458;45.328;9.514;2023-01-23T01:22:22;5.20;89.50
36424;DHT22;22458;45.328;9.514;2023-01-23T01:24:48;5.30;89.60
36424;DHT22;22458;45.328;9.514;2023-01-23T01:27:14;5.30;89.60
36424;DHT22;22458;45.328;9.514;2023-01-23T01:29:40;5.20;90.00
36424;DHT22;22458;45.328;9.514;2023-01-23T01:32:05;5.20;89.50
36424;DHT22;22458;45.328;9.514;2023-01-23T01:34:31;5.20;89.50
36424;DHT22;22458;45.328;9.514;2023-01-23T01:36:57;5.20;89.50
36424;DHT22;22458;45.328;9.514;2023-01-23T01:39:23;5.20;89.40
36424;DHT22;22458;45.328;9.514;2023-01-23T01:41:49;5.20;89.50
36424;DHT22;22458;45.328;9.514;2023-01-23T01:44:19;5.20;89.50
36424;DHT22;22458;45.328;9.514;2023-01-23T01:46:46;5.30;89.70
36424;DHT22;22458;45.328;9.514;2023-01-23T01:49:16;5.30;89.70
36424;DHT22;22458;45.328;9.514;2023-01-23T01:52:06;5.30;89.60
36424;DHT22;22458;45.328;9.514;2023-01-23T01:54:44;5.40;89.70
36424;DHT22;22458;45.328;9.514;2023-01-23T02:00:03;5.50;89.50
36424;DHT22;22458;45.328;9.514;2023-01-23T02:02:48;5.60;89.50
36424;DHT22;22458;45.328;9.514;2023-01-23T02:08:02;5.60;89.40
36424;DHT22;22458;45.328;9.514;2023-01-23T02:10:29;5.60;89.50
36424;DHT22;22458;45.328;9.514;2023-01-23T02:13:35;5.60;89.50
36424;DHT22;22458;45.328;9.514;2023-01-23T02:16:06;5.60;89.40
36424;DHT22;22458;45.328;9.514;2023-01-23T02:18:35;5.60;89.50
36424;DHT22;22458;45.328;9.514;2023-01-23T02:21:04;5.50;89.70
36424;DHT22;22458;45.328;9.514;2023-01-23T02:26:06;5.40;90.00
36424;DHT22;22458;45.328;9.514;2023-01-23T02:28:51;5.20;90.00
36424;DHT22;22458;45.328;9.514;2023-01-23T02:31:20;5.10;90.10
36424;DHT22;22458;45.328;9.514;2023-01-23T02:33:52;5.00;90.30
36424;DHT22;22458;45.328;9.514;2023-01-23T02:36:22;5.10;90.30
36424;DHT22;22458;45.328;9.514;2023-01-23T02:41:32;5.10;90.30
36424;DHT22;22458;45.328;9.514;2023-01-23T02:44:02;5.10;90.30
36424;DHT22;22458;45.328;9.514;2023-01-23T02:46:29;5.00;90.40
36424;DHT22;22458;45.328;9.514;2023-01-23T02:48:56;5.00;90.50
36424;DHT22;22458;45.328;9.514;2023-01-23T02:51:23;5.10;90.40
36424;DHT22;22458;45.328;9.514;2023-01-23T02:53:49;4.90;90.50
36424;DHT22;22458;45.328;9.514;2023-01-23T02:56:17;4.90;90.70
36424;DHT22;22458;45.328;9.514;2023-01-23T02:58:43;4.70;90.90
36424;DHT22;22458;45.328;9.514;2023-01-23T03:01:27;4.60;91.10
36424;DHT22;22458;45.328;9.514;2023-01-23T03:03:53;4.40;91.20
36424;DHT22;22458;45.328;9.514;2023-01-23T03:06:22;4.30;91.50
36424;DHT22;22458;45.328;9.514;2023-01-23T03:08:49;4.30;91.50
36424;DHT22;22458;45.328;9.514;2023-01-23T03:11:16;4.40;91.60
36424;DHT22;22458;45.328;9.514;2023-01-23T03:13:45;4.40;91.70
36424;DHT22;22458;45.328;9.514;2023-01-23T03:16:12;4.50;91.60
36424;DHT22;22458;45.328;9.514;2023-01-23T03:18:37;4.70;91.50
36424;DHT22;22458;45.328;9.514;2023-01-23T03:21:05;4.80;91.40
36424;DHT22;22458;45.328;9.514;2023-01-23T03:23:31;4.80;91.30
36424;DHT22;22458;45.328;9.514;2023-01-23T03:25:57;4.80;91.20
36424;DHT22;22458;45.328;9.514;2023-01-23T03:28:28;4.80;91.30
36424;DHT22;22458;45.328;9.514;2023-01-23T03:31:14;4.70;91.50
36424;DHT22;22458;45.328;9.514;2023-01-23T03:33:40;4.70;91.50
36424;DHT22;22458;45.328;9.514;2023-01-23T03:36:09;4.80;91.50
36424;DHT22;22458;45.328;9.514;2023-01-23T03:38:36;4.90;91.50
36424;DHT22;22458;45.328;9.514;2023-01-23T03:41:05;5.00;91.40
36424;DHT22;22458;45.328;9.514;2023-01-23T03:43:50;5.00;91.40
36424;DHT22;22458;45.328;9.514;2023-01-23T03:46:15;4.90;91.40
36424;DHT22;22458;45.328;9.514;2023-01-23T03:48:42;5.00;91.50
36424;DHT22;22458;45.328;9.514;2023-01-23T03:51:07;4.90;91.50
36424;DHT22;22458;45.328;9.514;2023-01-23T03:53:33;5.00;91.50
36424;DHT22;22458;45.328;9.514;2023-01-23T03:55:59;5.10;91.40
36424;DHT22;22458;45.328;9.514;2023-01-23T03:58:27;5.10;91.30
36424;DHT22;22458;45.328;9.514;2023-01-23T04:00:53;5.10;91.30
36424;DHT22;22458;45.328;9.514;2023-01-23T04:03:19;5.00;91.40
36424;DHT22;22458;45.328;9.514;2023-01-23T04:05:45;4.90;91.50
36424;DHT22;22458;45.328;9.514;2023-01-23T04:08:11;4.90;91.60
36424;DHT22;22458;45.328;9.514;2023-01-23T04:10:37;4.90;91.60
36424;DHT22;22458;45.328;9.514;2023-01-23T04:13:10;4.80;91.70
36424;DHT22;22458;45.328;9.514;2023-01-23T04:15:37;4.80;91.70
36424;DHT22;22458;45.328;9.514;2023-01-23T04:18:05;4.90;92.00
36424;DHT22;22458;45.328;9.514;2023-01-23T04:20:31;5.00;91.60
36424;DHT22;22458;45.328;9.514;2023-01-23T04:22:58;5.00;91.60
36424;DHT22;22458;45.328;9.514;2023-01-23T04:25:25;5.00;91.50
36424;DHT22;22458;45.328;9.514;2023-01-23T04:27:51;5.10;91.50
36424;DHT22;22458;45.328;9.514;2023-01-23T04:30:17;5.30;91.40
36424;DHT22;22458;45.328;9.514;2023-01-23T04:32:43;5.30;91.30
36424;DHT22;22458;45.328;9.514;2023-01-23T04:35:09;5.30;91.20
36424;DHT22;22458;45.328;9.514;2023-01-23T04:37:37;5.40;91.10
36424;DHT22;22458;45.328;9.514;2023-01-23T04:40:03;5.50;91.10
36424;DHT22;22458;45.328;9.514;2023-01-23T04:42:38;5.50;90.90
36424;DHT22;22458;45.328;9.514;2023-01-23T04:45:09;5.50;90.90
36424;DHT22;22458;45.328;9.514;2023-01-23T04:47:53;5.60;90.90
36424;DHT22;22458;45.328;9.514;2023-01-23T04:50:21;5.60;90.80
36424;DHT22;22458;45.328;9.514;2023-01-23T04:52:47;5.60;90.70
36424;DHT22;22458;45.328;9.514;2023-01-23T04:55:12;5.70;90.70
36424;DHT22;22458;45.328;9.514;2023-01-23T04:57:40;5.70;90.60
36424;DHT22;22458;45.328;9.514;2023-01-23T05:00:14;5.70;90.60
36424;DHT22;22458;45.328;9.514;2023-01-23T05:02:40;5.70;90.50
36424;DHT22;22458;45.328;9.514;2023-01-23T05:05:07;5.60;90.50
36424;DHT22;22458;45.328;9.514;2023-01-23T05:07:33;5.60;90.60
36424;DHT22;22458;45.328;9.514;2023-01-23T05:10:09;5.70;90.60
36424;DHT22;22458;45.328;9.514;2023-01-23T05:12:36;5.80;90.50
36424;DHT22;22458;45.328;9.514;2023-01-23T05:15:02;5.80;90.50
36424;DHT22;22458;45.328;9.514;2023-01-23T05:17:29;5.90;90.40
36424;DHT22;22458;45.328;9.514;2023-01-23T05:19:55;5.80;90.40
36424;DHT22;22458;45.328;9.514;2023-01-23T05:22:21;5.80;90.40
36424;DHT22;22458;45.328;9.514;2023-01-23T05:24:47;5.80;90.40
36424;DHT22;22458;45.328;9.514;2023-01-23T05:27:14;5.80;90.50
36424;DHT22;22458;45.328;9.514;2023-01-23T05:29:43;5.80;90.40
36424;DHT22;22458;45.328;9.514;2023-01-23T05:32:14;5.90;90.30
36424;DHT22;22458;45.328;9.514;2023-01-23T05:34:42;5.90;90.20
36424;DHT22;22458;45.328;9.514;2023-01-23T05:37:20;5.90;90.20
36424;DHT22;22458;45.328;9.514;2023-01-23T05:39:51;5.90;90.40
36424;DHT22;22458;45.328;9.514;2023-01-23T05:42:18;6.00;90.10
36424;DHT22;22458;45.328;9.514;2023-01-23T05:45:10;6.00;90.00
36424;DHT22;22458;45.328;9.514;2023-01-23T05:47:40;6.00;89.90
36424;DHT22;22458;45.328;9.514;2023-01-23T05:50:07;6.10;89.80
36424;DHT22;22458;45.328;9.514;2023-01-23T05:52:35;6.00;89.70
36424;DHT22;22458;45.328;9.514;2023-01-23T05:55:02;6.00;89.60
36424;DHT22;22458;45.328;9.514;2023-01-23T05:57:28;6.00;89.70
36424;DHT22;22458;45.328;9.514;2023-01-23T06:00:13;6.00;89.70
36424;DHT22;22458;45.328;9.514;2023-01-23T06:02:54;6.00;89.60
36424;DHT22;22458;45.328;9.514;2023-01-23T06:05:40;6.10;89.50
36424;DHT22;22458;45.328;9.514;2023-01-23T06:08:12;6.10;89.40
36424;DHT22;22458;45.328;9.514;2023-01-23T06:10:38;6.10;89.20
36424;DHT22;22458;45.328;9.514;2023-01-23T06:13:04;6.00;89.00
36424;DHT22;22458;45.328;9.514;2023-01-23T06:15:30;5.90;88.90
36424;DHT22;22458;45.328;9.514;2023-01-23T06:17:58;5.70;88.60
36424;DHT22;22458;45.328;9.514;2023-01-23T06:20:25;5.60;88.80
36424;DHT22;22458;45.328;9.514;2023-01-23T06:22:50;5.40;88.80
36424;DHT22;22458;45.328;9.514;2023-01-23T06:25:16;5.40;89.20
36424;DHT22;22458;45.328;9.514;2023-01-23T06:27:45;5.40;89.10
36424;DHT22;22458;45.328;9.514;2023-01-23T06:30:12;5.30;89.00
36424;DHT22;22458;45.328;9.514;2023-01-23T06:32:40;5.40;89.20
36424;DHT22;22458;45.328;9.514;2023-01-23T06:35:08;5.40;88.80
36424;DHT22;22458;45.328;9.514;2023-01-23T06:37:39;5.30;88.90
36424;DHT22;22458;45.328;9.514;2023-01-23T06:40:10;5.30;89.00
36424;DHT22;22458;45.328;9.514;2023-01-23T06:42:41;5.40;88.80
36424;DHT22;22458;45.328;9.514;2023-01-23T06:45:09;5.50;88.50
36424;DHT22;22458;45.328;9.514;2023-01-23T06:47:36;5.70;88.40
36424;DHT22;22458;45.328;9.514;2023-01-23T06:50:02;5.80;88.20
36424;DHT22;22458;45.328;9.514;2023-01-23T06:52:31;5.80;88.00
36424;DHT22;22458;45.328;9.514;2023-01-23T06:54:58;5.90;87.90
36424;DHT22;22458;45.328;9.514;2023-01-23T06:57:23;5.90;87.70
36424;DHT22;22458;45.328;9.514;2023-01-23T06:59:50;5.90;87.70
36424;DHT22;22458;45.328;9.514;2023-01-23T07:02:18;5.80;87.90
36424;DHT22;22458;45.328;9.514;2023-01-23T07:04:49;5.80;88.30
36424;DHT22;22458;45.328;9.514;2023-01-23T07:07:14;5.80;88.30
36424;DHT22;22458;45.328;9.514;2023-01-23T07:09:41;5.90;88.20
36424;DHT22;22458;45.328;9.514;2023-01-23T07:12:15;5.90;88.10
36424;DHT22;22458;45.328;9.514;2023-01-23T07:14:41;5.90;88.10
36424;DHT22;22458;45.328;9.514;2023-01-23T07:17:09;6.00;88.00
36424;DHT22;22458;45.328;9.514;2023-01-23T07:19:35;6.00;88.10
36424;DHT22;22458;45.328;9.514;2023-01-23T07:22:04;6.00;88.00
36424;DHT22;22458;45.328;9.514;2023-01-23T07:24:30;5.90;87.90
36424;DHT22;22458;45.328;9.514;2023-01-23T07:26:57;5.80;88.30
36424;DHT22;22458;45.328;9.514;2023-01-23T07:29:23;5.80;88.40
36424;DHT22;22458;45.328;9.514;2023-01-23T07:31:49;5.60;88.90
36424;DHT22;22458;45.328;9.514;2023-01-23T07:34:14;5.60;88.90
36424;DHT22;22458;45.328;9.514;2023-01-23T07:36:40;5.30;89.00
36424;DHT22;22458;45.328;9.514;2023-01-23T07:39:06;5.30;89.70
36424;DHT22;22458;45.328;9.514;2023-01-23T07:41:32;5.20;90.00
36424;DHT22;22458;45.328;9.514;2023-01-23T07:44:01;5.30;90.00
36424;DHT22;22458;45.328;9.514;2023-01-23T07:46:27;5.50;89.80
36424;DHT22;22458;45.328;9.514;2023-01-23T07:48:53;5.50;89.60
36424;DHT22;22458;45.328;9.514;2023-01-23T07:51:20;5.50;89.30
36424;DHT22;22458;45.328;9.514;2023-01-23T07:53:46;5.50;89.30
36424;DHT22;22458;45.328;9.514;2023-01-23T07:56:12;5.50;89.10
36424;DHT22;22458;45.328;9.514;2023-01-23T07:58:37;5.50;89.20
36424;DHT22;22458;45.328;9.514;2023-01-23T08:01:10;5.60;89.10
36424;DHT22;22458;45.328;9.514;2023-01-23T08:03:36;5.70;89.40
36424;DHT22;22458;45.328;9.514;2023-01-23T08:06:02;5.60;88.90
36424;DHT22;22458;45.328;9.514;2023-01-23T08:08:27;5.50;89.20
36424;DHT22;22458;45.328;9.514;2023-01-23T08:10:54;5.60;89.20
36424;DHT22;22458;45.328;9.514;2023-01-23T08:13:20;5.70;89.50
36424;DHT22;22458;45.328;9.514;2023-01-23T08:15:45;5.60;88.60
36424;DHT22;22458;45.328;9.514;2023-01-23T08:18:11;5.50;88.60
36424;DHT22;22458;45.328;9.514;2023-01-23T08:20:37;5.50;88.80
36424;DHT22;22458;45.328;9.514;2023-01-23T08:23:03;5.60;88.70
36424;DHT22;22458;45.328;9.514;2023-01-23T08:25:29;5.60;88.60
36424;DHT22;22458;45.328;9.514;2023-01-23T08:27:55;5.70;88.60
36424;DHT22;22458;45.328;9.514;2023-01-23T08:30:21;5.70;88.40
36424;DHT22;22458;45.328;9.514;2023-01-23T08:32:47;5.80;88.30
36424;DHT22;22458;45.328;9.514;2023-01-23T08:35:12;5.80;88.00
36424;DHT22;22458;45.328;9.514;2023-01-23T08:37:38;5.70;88.00
36424;DHT22;22458;45.328;9.514;2023-01-23T08:40:06;5.60;87.90
36424;DHT22;22458;45.328;9.514;2023-01-23T08:42:32;5.60;88.20
36424;DHT22;22458;45.328;9.514;2023-01-23T08:44:58;5.60;88.10
36424;DHT22;22458;45.328;9.514;2023-01-23T08:47:24;5.60;87.90
36424;DHT22;22458;45.328;9.514;2023-01-23T08:49:49;5.50;88.00
36424;DHT22;22458;45.328;9.514;2023-01-23T08:52:15;5.40;88.00
36424;DHT22;22458;45.328;9.514;2023-01-23T08:54:47;5.30;88.30
36424;DHT22;22458;45.328;9.514;2023-01-23T08:57:13;5.30;88.50
36424;DHT22;22458;45.328;9.514;2023-01-23T08:59:38;5.20;88.50
36424;DHT22;22458;45.328;9.514;2023-01-23T09:02:04;5.40;89.00
36424;DHT22;22458;45.328;9.514;2023-01-23T09:04:30;5.40;88.30
36424;DHT22;22458;45.328;9.514;2023-01-23T09:06:55;5.40;88.10
36424;DHT22;22458;45.328;9.514;2023-01-23T09:09:21;5.40;87.80
36424;DHT22;22458;45.328;9.514;2023-01-23T09:11:47;5.30;87.80
36424;DHT22;22458;45.328;9.514;2023-01-23T09:14:13;5.20;88.00
36424;DHT22;22458;45.328;9.514;2023-01-23T09:16:38;5.20;88.10
36424;DHT22;22458;45.328;9.514;2023-01-23T09:19:05;5.20;88.20
36424;DHT22;22458;45.328;9.514;2023-01-23T09:21:31;5.30;88.10
36424;DHT22;22458;45.328;9.514;2023-01-23T09:23:57;5.30;87.90
36424;DHT22;22458;45.328;9.514;2023-01-23T09:26:23;5.30;87.70
36424;DHT22;22458;45.328;9.514;2023-01-23T09:28:49;5.40;87.50
36424;DHT22;22458;45.328;9.514;2023-01-23T09:31:15;5.40;87.40
36424;DHT22;22458;45.328;9.514;2023-01-23T09:33:42;5.60;87.40
36424;DHT22;22458;45.328;9.514;2023-01-23T09:36:08;5.60;87.00
36424;DHT22;22458;45.328;9.514;2023-01-23T09:38:34;5.60;86.90
36424;DHT22;22458;45.328;9.514;2023-01-23T09:41:19;5.50;86.90
36424;DHT22;22458;45.328;9.514;2023-01-23T09:44:00;5.60;87.00
36424;DHT22;22458;45.328;9.514;2023-01-23T09:46:47;5.80;87.10
36424;DHT22;22458;45.328;9.514;2023-01-23T09:49:40;6.00;86.60
36424;DHT22;22458;45.328;9.514;2023-01-23T09:52:14;6.10;86.30
36424;DHT22;22458;45.328;9.514;2023-01-23T09:54:56;6.30;86.00
36424;DHT22;22458;45.328;9.514;2023-01-23T09:57:35;6.40;85.40
36424;DHT22;22458;45.328;9.514;2023-01-23T10:00:29;6.50;85.10
36424;DHT22;22458;45.328;9.514;2023-01-23T10:02:57;6.60;84.80
36424;DHT22;22458;45.328;9.514;2023-01-23T10:05:33;6.50;84.60
36424;DHT22;22458;45.328;9.514;2023-01-23T10:11:27;6.80;84.30
36424;DHT22;22458;45.328;9.514;2023-01-23T10:25:21;6.80;83.30
36424;DHT22;22458;45.328;9.514;2023-01-23T10:27:50;6.70;83.00
36424;DHT22;22458;45.328;9.514;2023-01-23T10:30:30;6.80;83.10
36424;DHT22;22458;45.328;9.514;2023-01-23T10:32:59;6.90;82.80
36424;DHT22;22458;45.328;9.514;2023-01-23T10:35:45;7.10;82.70
36424;DHT22;22458;45.328;9.514;2023-01-23T10:40:59;7.20;82.10
36424;DHT22;22458;45.328;9.514;2023-01-23T10:43:38;7.10;82.20
36424;DHT22;22458;45.328;9.514;2023-01-23T10:46:15;7.10;82.00
36424;DHT22;22458;45.328;9.514;2023-01-23T10:56:34;7.50;81.40
36424;DHT22;22458;45.328;9.514;2023-01-23T10:59:03;7.70;81.10
36424;DHT22;22458;45.328;9.514;2023-01-23T11:01:31;7.80;80.80
36424;DHT22;22458;45.328;9.514;2023-01-23T11:04:10;7.90;80.90
36424;DHT22;22458;45.328;9.514;2023-01-23T11:06:36;7.80;79.80
36424;DHT22;22458;45.328;9.514;2023-01-23T11:09:02;7.70;79.90
36424;DHT22;22458;45.328;9.514;2023-01-23T11:11:32;7.70;80.00
36424;DHT22;22458;45.328;9.514;2023-01-23T11:14:11;7.70;79.90
36424;DHT22;22458;45.328;9.514;2023-01-23T11:16:38;7.70;79.80
36424;DHT22;22458;45.328;9.514;2023-01-23T11:21:53;7.70;79.60
36424;DHT22;22458;45.328;9.514;2023-01-23T11:24:40;7.70;79.60
36424;DHT22;22458;45.328;9.514;2023-01-23T11:32:20;7.90;79.10
36424;DHT22;22458;45.328;9.514;2023-01-23T11:34:49;7.90;78.90
36424;DHT22;22458;45.328;9.514;2023-01-23T11:37:24;8.00;78.80
36424;DHT22;22458;45.328;9.514;2023-01-23T11:42:27;8.20;78.50
36424;DHT22;22458;45.328;9.514;2023-01-23T11:44:55;8.30;78.30
36424;DHT22;22458;45.328;9.514;2023-01-23T11:47:42;8.30;78.10
36424;DHT22;22458;45.328;9.514;2023-01-23T11:50:21;8.30;77.80
36424;DHT22;22458;45.328;9.514;2023-01-23T11:55:55;8.40;77.80
36424;DHT22;22458;45.328;9.514;2023-01-23T12:09:18;8.20;79.10
36424;DHT22;22458;45.328;9.514;2023-01-23T12:23:24;7.90;80.80
36424;DHT22;22458;45.328;9.514;2023-01-23T12:26:13;7.90;81.10
36424;DHT22;22458;45.328;9.514;2023-01-23T12:31:18;7.80;81.40
36424;DHT22;22458;45.328;9.514;2023-01-23T12:42:09;7.70;82.40
36424;DHT22;22458;45.328;9.514;2023-01-23T12:44:58;7.60;82.40
36424;DHT22;22458;45.328;9.514;2023-01-23T12:47:39;7.50;82.70
36424;DHT22;22458;45.328;9.514;2023-01-23T12:50:15;7.50;83.00
36424;DHT22;22458;45.328;9.514;2023-01-23T12:52:52;7.40;83.30
36424;DHT22;22458;45.328;9.514;2023-01-23T12:55:24;7.40;83.30
36424;DHT22;22458;45.328;9.514;2023-01-23T12:57:55;7.20;83.10
36424;DHT22;22458;45.328;9.514;2023-01-23T13:00:51;7.10;83.30
36424;DHT22;22458;45.328;9.514;2023-01-23T13:03:33;7.10;83.60
36424;DHT22;22458;45.328;9.514;2023-01-23T13:06:04;7.10;83.80
36424;DHT22;22458;45.328;9.514;2023-01-23T13:11:23;7.00;83.80
36424;DHT22;22458;45.328;9.514;2023-01-23T13:14:24;6.90;84.00
36424;DHT22;22458;45.328;9.514;2023-01-23T13:16:51;6.90;84.10
36424;DHT22;22458;45.328;9.514;2023-01-23T13:19:39;6.70;84.30
36424;DHT22;22458;45.328;9.514;2023-01-23T13:22:31;6.70;84.40
36424;DHT22;22458;45.328;9.514;2023-01-23T13:25:14;6.60;84.70
36424;DHT22;22458;45.328;9.514;2023-01-23T13:27:56;6.60;84.80
36424;DHT22;22458;45.328;9.514;2023-01-23T13:32:52;6.40;85.30
36424;DHT22;22458;45.328;9.514;2023-01-23T13:36:24;6.40;85.30
36424;DHT22;22458;45.328;9.514;2023-01-23T13:38:34;6.40;85.60
36424;DHT22;22458;45.328;9.514;2023-01-23T13:51:48;6.70;85.90
36424;DHT22;22458;45.328;9.514;2023-01-23T13:54:25;6.70;85.70
36424;DHT22;22458;45.328;9.514;2023-01-23T13:57:10;6.80;85.70
36424;DHT22;22458;45.328;9.514;2023-01-23T13:59:42;6.80;85.40
36424;DHT22;22458;45.328;9.514;2023-01-23T14:02:32;6.90;85.20
36424;DHT22;22458;45.328;9.514;2023-01-23T14:05:28;6.80;84.90
36424;DHT22;22458;45.328;9.514;2023-01-23T14:08:03;6.90;84.80
36424;DHT22;22458;45.328;9.514;2023-01-23T14:10:34;6.90;84.40
36424;DHT22;22458;45.328;9.514;2023-01-23T14:13:10;7.10;84.90
36424;DHT22;22458;45.328;9.514;2023-01-23T14:15:38;7.20;84.10
36424;DHT22;22458;45.328;9.514;2023-01-23T14:18:45;7.30;83.50
36424;DHT22;22458;45.328;9.514;2023-01-23T14:23:50;7.20;83.10
36424;DHT22;22458;45.328;9.514;2023-01-23T14:26:20;7.20;82.90
36424;DHT22;22458;45.328;9.514;2023-01-23T14:28:59;7.10;83.20
36424;DHT22;22458;45.328;9.514;2023-01-23T14:31:35;7.20;83.80
36424;DHT22;22458;45.328;9.514;2023-01-23T14:34:06;7.10;83.20
36424;DHT22;22458;45.328;9.514;2023-01-23T14:36:42;7.20;83.20
36424;DHT22;22458;45.328;9.514;2023-01-23T14:39:28;7.20;83.30
36424;DHT22;22458;45.328;9.514;2023-01-23T14:41:56;7.40;83.00
36424;DHT22;22458;45.328;9.514;2023-01-23T14:46:57;7.40;82.50
36424;DHT22;22458;45.328;9.514;2023-01-23T14:49:32;7.50;82.10
36424;DHT22;22458;45.328;9.514;2023-01-23T14:52:04;7.40;82.00
36424;DHT22;22458;45.328;9.514;2023-01-23T14:54:33;7.30;82.20
36424;DHT22;22458;45.328;9.514;2023-01-23T14:57:00;7.40;82.50
36424;DHT22;22458;45.328;9.514;2023-01-23T14:59:38;7.40;82.40
36424;DHT22;22458;45.328;9.514;2023-01-23T15:02:34;7.50;82.40
36424;DHT22;22458;45.328;9.514;2023-01-23T15:10:18;7.50;81.90
36424;DHT22;22458;45.328;9.514;2023-01-23T15:15:19;7.50;82.50
36424;DHT22;22458;45.328;9.514;2023-01-23T15:17:45;7.50;82.40
36424;DHT22;22458;45.328;9.514;2023-01-23T15:20:35;7.50;82.30
36424;DHT22;22458;45.328;9.514;2023-01-23T15:23:30;7.50;82.30
36424;DHT22;22458;45.328;9.514;2023-01-23T15:26:09;7.50;82.30
36424;DHT22;22458;45.328;9.514;2023-01-23T15:28:46;7.60;82.30
36424;DHT22;22458;45.328;9.514;2023-01-23T15:33:55;7.50;82.10
36424;DHT22;22458;45.328;9.514;2023-01-23T15:36:27;7.60;82.30
36424;DHT22;22458;45.328;9.514;2023-01-23T15:38:55;7.70;82.40
36424;DHT22;22458;45.328;9.514;2023-01-23T15:41:38;7.70;82.40
36424;DHT22;22458;45.328;9.514;2023-01-23T15:44:14;7.70;82.20
36424;DHT22;22458;45.328;9.514;2023-01-23T15:46:40;7.60;82.10
36424;DHT22;22458;45.328;9.514;2023-01-23T15:49:06;7.40;82.00
36424;DHT22;22458;45.328;9.514;2023-01-23T15:51:32;7.20;81.50
36424;DHT22;22458;45.328;9.514;2023-01-23T15:53:58;7.10;81.80
36424;DHT22;22458;45.328;9.514;2023-01-23T15:56:29;7.20;82.00
36424;DHT22;22458;45.328;9.514;2023-01-23T15:58:55;7.20;81.90
36424;DHT22;22458;45.328;9.514;2023-01-23T16:01:21;7.20;81.90
36424;DHT22;22458;45.328;9.514;2023-01-23T16:03:47;7.10;81.80
36424;DHT22;22458;45.328;9.514;2023-01-23T16:06:21;7.10;82.00
36424;DHT22;22458;45.328;9.514;2023-01-23T16:08:49;7.20;82.20
36424;DHT22;22458;45.328;9.514;2023-01-23T16:11:16;7.20;82.20
36424;DHT22;22458;45.328;9.514;2023-01-23T16:13:42;7.20;82.40
36424;DHT22;22458;45.328;9.514;2023-01-23T16:16:16;7.10;82.50
36424;DHT22;22458;45.328;9.514;2023-01-23T16:18:42;7.20;82.90
36424;DHT22;22458;45.328;9.514;2023-01-23T16:21:16;7.30;82.80
36424;DHT22;22458;45.328;9.514;2023-01-23T16:23:42;7.40;82.70
36424;DHT22;22458;45.328;9.514;2023-01-23T16:26:18;7.30;82.80
36424;DHT22;22458;45.328;9.514;2023-01-23T16:28:44;7.40;82.90
36424;DHT22;22458;45.328;9.514;2023-01-23T16:31:14;7.40;82.90
36424;DHT22;22458;45.328;9.514;2023-01-23T16:33:40;7.30;83.00
36424;DHT22;22458;45.328;9.514;2023-01-23T16:36:14;7.30;83.10
36424;DHT22;22458;45.328;9.514;2023-01-23T16:38:43;7.40;83.10
36424;DHT22;22458;45.328;9.514;2023-01-23T16:41:10;7.50;83.00
36424;DHT22;22458;45.328;9.514;2023-01-23T16:43:36;7.50;82.90
36424;DHT22;22458;45.328;9.514;2023-01-23T16:46:01;7.60;83.20
36424;DHT22;22458;45.328;9.514;2023-01-23T16:48:27;7.70;83.30
36424;DHT22;22458;45.328;9.514;2023-01-23T16:50:56;7.40;83.70
36424;DHT22;22458;45.328;9.514;2023-01-23T16:55:53;6.70;85.40
36424;DHT22;22458;45.328;9.514;2023-01-23T16:58:21;6.70;86.10
36424;DHT22;22458;45.328;9.514;2023-01-23T17:00:49;6.60;86.40
36424;DHT22;22458;45.328;9.514;2023-01-23T17:03:26;6.60;86.60
36424;DHT22;22458;45.328;9.514;2023-01-23T17:05:53;6.70;86.80
36424;DHT22;22458;45.328;9.514;2023-01-23T17:08:21;6.80;86.70
36424;DHT22;22458;45.328;9.514;2023-01-23T17:10:51;6.90;86.70
36424;DHT22;22458;45.328;9.514;2023-01-23T17:13:19;7.10;86.70
36424;DHT22;22458;45.328;9.514;2023-01-23T17:15:46;7.00;86.60
36424;DHT22;22458;45.328;9.514;2023-01-23T17:18:24;7.10;86.70
36424;DHT22;22458;45.328;9.514;2023-01-23T17:20:51;7.10;86.80
36424;DHT22;22458;45.328;9.514;2023-01-23T17:23:20;7.10;86.90
36424;DHT22;22458;45.328;9.514;2023-01-23T17:25:46;7.00;87.10
36424;DHT22;22458;45.328;9.514;2023-01-23T17:28:16;7.00;87.40
36424;DHT22;22458;45.328;9.514;2023-01-23T17:30:43;7.10;87.30
36424;DHT22;22458;45.328;9.514;2023-01-23T17:33:23;7.20;87.10
36424;DHT22;22458;45.328;9.514;2023-01-23T17:35:50;7.20;87.00
36424;DHT22;22458;45.328;9.514;2023-01-23T17:38:25;7.30;86.80
36424;DHT22;22458;45.328;9.514;2023-01-23T17:40:51;7.30;86.70
36424;DHT22;22458;45.328;9.514;2023-01-23T17:43:18;7.20;86.90
36424;DHT22;22458;45.328;9.514;2023-01-23T17:45:46;7.30;86.80
36424;DHT22;22458;45.328;9.514;2023-01-23T17:48:15;7.30;86.60
36424;DHT22;22458;45.328;9.514;2023-01-23T17:50:45;7.30;86.70
36424;DHT22;22458;45.328;9.514;2023-01-23T17:53:20;7.20;87.00
36424;DHT22;22458;45.328;9.514;2023-01-23T17:55:46;7.20;87.30
36424;DHT22;22458;45.328;9.514;2023-01-23T17:58:17;7.20;87.30
36424;DHT22;22458;45.328;9.514;2023-01-23T18:00:45;7.30;87.30
36424;DHT22;22458;45.328;9.514;2023-01-23T18:03:12;7.40;87.10